Time;durP1;ratioP1;P1;durP2;ratioP2;P2;SDS_P1;SDS_P2;PMS_P1;PMS_P2;Temp;Humidity;BMP_temperature;BMP_pressure;BME280_temperature;BME280_humidity;BME280_pressure;Samples;Min_cycle;Max_cycle;Signal;HPM_P1;HPM_P2
2023/12/03 00:00:41;;;;;;;18.60;8.30;;;0.10;99.90;;;;;;6214346;23;20432;-57
2023/12/03 00:03:09;;;;;;;18.27;7.27;;;0.10;99.90;;;;;;6214292;23;20383;-55
2023/12/03 00:05:38;;;;;;;18.67;8.97;;;0.10;99.90;;;;;;6213772;23;20373;-63
2023/12/03 00:08:05;;;;;;;14.37;6.60;;;0.10;99.90;;;;;;6214032;23;20432;-60
2023/12/03 00:10:32;;;;;;;14.30;7.97;;;0.10;99.90;;;;;;6214219;23;20397;-61
2023/12/03 00:12:59;;;;;;;15.70;7.27;;;0.10;99.90;;;;;;6214297;23;20412;-56
2023/12/03 00:15:26;;;;;;;12.10;6.30;;;0.10;99.90;;;;;;6213790;23;20455;-63
2023/12/03 00:17:56;;;;;;;15.83;8.07;;;0.00;99.90;;;;;;6214071;23;20415;-56
2023/12/03 00:20:24;;;;;;;19.67;9.03;;;0.10;99.90;;;;;;6214075;23;20393;-57
2023/12/03 00:22:54;;;;;;;12.93;6.10;;;0.10;99.90;;;;;;6213963;23;20418;-59
2023/12/03 00:25:21;;;;;;;20.80;9.83;;;0.10;99.90;;;;;;6213829;23;20396;-61
2023/12/03 00:27:48;;;;;;;13.47;7.37;;;0.10;99.90;;;;;;6213874;23;20425;-60
2023/12/03 00:30:16;;;;;;;18.13;9.67;;;0.10;99.90;;;;;;6213952;23;20393;-60
2023/12/03 00:32:42;;;;;;;16.90;6.80;;;0.10;99.90;;;;;;6213104;23;20444;-63
2023/12/03 00:35:09;;;;;;;12.40;5.83;;;0.00;99.90;;;;;;6213723;23;20447;-60
2023/12/03 00:37:37;;;;;;;9.10;6.57;;;0.00;99.90;;;;;;6213993;23;20405;-60
2023/12/03 00:40:05;;;;;;;16.53;7.70;;;0.00;99.90;;;;;;6213809;23;20385;-54
2023/12/03 00:42:32;;;;;;;12.60;6.10;;;-0.10;99.90;;;;;;6213841;23;20392;-57
2023/12/03 00:44:59;;;;;;;20.33;8.83;;;0.10;99.90;;;;;;6213883;23;20477;-60
2023/12/03 00:47:25;;;;;;;10.30;6.57;;;-0.10;99.90;;;;;;6213970;23;20397;-58
2023/12/03 00:49:53;;;;;;;9.73;5.30;;;-0.20;99.90;;;;;;6213897;23;20377;-58
2023/12/03 00:52:19;;;;;;;12.23;5.23;;;-0.20;99.90;;;;;;6213950;23;20393;-59
2023/12/03 00:54:50;;;;;;;19.17;7.10;;;-0.30;99.90;;;;;;6213844;23;20532;-63
2023/12/03 00:57:17;;;;;;;16.87;7.80;;;-0.30;99.90;;;;;;6213783;23;20382;-61
2023/12/03 00:59:44;;;;;;;16.10;8.87;;;-0.30;99.90;;;;;;6213912;23;20393;-56
2023/12/03 01:02:10;;;;;;;16.23;7.47;;;-0.30;99.90;;;;;;6213655;23;20476;-56
2023/12/03 01:04:38;;;;;;;12.30;6.70;;;-0.30;99.90;;;;;;6213922;23;20397;-62
2023/12/03 01:07:07;;;;;;;10.70;6.60;;;-0.20;99.90;;;;;;6213899;23;20385;-62
2023/12/03 01:09:34;;;;;;;9.20;5.53;;;-0.30;99.90;;;;;;6213945;23;20365;-53
2023/12/03 01:12:03;;;;;;;11.67;6.30;;;-0.30;99.90;;;;;;6213746;23;20389;-59
2023/12/03 01:14:30;;;;;;;14.33;6.50;;;-0.20;99.90;;;;;;6213789;23;20440;-61
2023/12/03 01:16:56;;;;;;;20.97;6.07;;;-0.20;99.90;;;;;;6214138;23;20380;-59
2023/12/03 01:19:25;;;;;;;12.13;6.97;;;-0.20;99.90;;;;;;6215913;23;20396;-56
2023/12/03 01:21:52;;;;;;;12.23;4.70;;;-0.10;99.90;;;;;;6215659;23;20413;-58
2023/12/03 01:24:19;;;;;;;8.60;4.23;;;-0.10;99.90;;;;;;6215978;23;20457;-54
2023/12/03 01:26:46;;;;;;;7.83;5.00;;;-0.10;99.90;;;;;;6216008;23;20412;-55
2023/12/03 01:29:14;;;;;;;12.93;6.47;;;-0.10;99.90;;;;;;6215685;23;20860;-55
2023/12/03 01:31:41;;;;;;;4.87;3.00;;;-0.10;99.90;;;;;;6215928;23;20388;-58
2023/12/03 01:34:08;;;;;;;6.07;5.40;;;-0.20;99.90;;;;;;6215281;23;20416;-59
2023/12/03 01:36:35;;;;;;;6.90;3.60;;;-0.20;99.90;;;;;;6215765;23;20385;-63
2023/12/03 01:39:02;;;;;;;9.90;5.27;;;-0.20;99.90;;;;;;6215673;23;20416;-54
2023/12/03 01:41:31;;;;;;;10.40;2.93;;;-0.30;99.90;;;;;;6215534;23;20432;-53
2023/12/03 01:43:58;;;;;;;7.00;3.73;;;-0.30;99.90;;;;;;6215900;23;20384;-57
2023/12/03 01:46:28;;;;;;;4.40;2.87;;;-0.30;99.90;;;;;;6215635;23;20396;-54
2023/12/03 01:48:55;;;;;;;4.60;3.33;;;-0.30;99.90;;;;;;6215149;23;20385;-61
2023/12/03 01:51:22;;;;;;;9.93;3.93;;;-0.30;99.90;;;;;;6215546;23;20405;-57
2023/12/03 01:53:53;;;;;;;8.10;4.60;;;-0.30;99.90;;;;;;6215371;23;20385;-58
2023/12/03 01:56:25;;;;;;;5.97;3.60;;;-0.30;99.90;;;;;;6215083;23;20440;-60
2023/12/03 01:58:52;;;;;;;7.93;3.90;;;-0.20;99.90;;;;;;6214731;23;20409;-55
2023/12/03 02:01:19;;;;;;;9.57;4.17;;;-0.10;99.90;;;;;;6214105;23;20433;-65
2023/12/03 02:03:47;;;;;;;3.80;3.30;;;-0.20;99.90;;;;;;6214406;23;20421;-67
2023/12/03 02:06:16;;;;;;;4.73;3.83;;;-0.10;99.90;;;;;;6214574;23;20408;-61
2023/12/03 02:08:43;;;;;;;5.23;3.83;;;-0.10;99.90;;;;;;6214197;23;20397;-60
2023/12/03 02:11:10;;;;;;;7.43;4.67;;;-0.20;99.90;;;;;;6213829;23;20412;-65
2023/12/03 02:13:39;;;;;;;6.60;3.60;;;-0.20;99.90;;;;;;6213659;23;20409;-59
2023/12/03 02:16:07;;;;;;;9.90;4.80;;;-0.10;99.90;;;;;;6214164;23;20428;-61
2023/12/03 02:18:35;;;;;;;12.00;4.77;;;-0.10;99.90;;;;;;6214167;23;20532;-66
2023/12/03 02:21:03;;;;;;;6.17;3.97;;;-0.10;99.90;;;;;;6214265;23;20439;-65
2023/12/03 02:23:32;;;;;;;9.00;4.33;;;-0.10;99.90;;;;;;6214149;23;20404;-59
2023/12/03 02:25:59;;;;;;;4.67;3.60;;;0.00;99.90;;;;;;6214680;23;20401;-61
2023/12/03 02:28:26;;;;;;;7.17;4.57;;;0.00;99.90;;;;;;6214662;23;20457;-53
2023/12/03 02:30:53;;;;;;;7.33;4.23;;;0.00;99.90;;;;;;6214765;23;20401;-57
2023/12/03 02:33:22;;;;;;;6.13;4.20;;;0.10;99.90;;;;;;6214609;23;20401;-62
2023/12/03 02:35:49;;;;;;;8.57;4.10;;;0.10;99.90;;;;;;6214803;23;20413;-66
2023/12/03 02:38:16;;;;;;;9.10;4.90;;;0.10;99.90;;;;;;6214715;23;20397;-63
2023/12/03 02:40:48;;;;;;;6.83;3.70;;;0.20;99.90;;;;;;6214795;23;20429;-54
2023/12/03 02:43:15;;;;;;;6.73;3.83;;;-0.90;99.90;;;;;;6215041;23;20378;-57
2023/12/03 02:45:41;;;;;;;6.10;2.70;;;1.30;99.90;;;;;;6214289;23;20400;-60
2023/12/03 02:48:08;;;;;;;7.30;4.57;;;0.10;99.90;;;;;;6214060;23;20423;-58
2023/12/03 02:50:35;;;;;;;11.80;4.70;;;0.10;99.90;;;;;;6214571;23;20396;-62
2023/12/03 02:53:02;;;;;;;8.87;3.90;;;0.10;99.90;;;;;;6214433;23;20393;-58
2023/12/03 02:55:29;;;;;;;7.80;3.70;;;-0.10;99.90;;;;;;6214382;23;20460;-60
2023/12/03 02:57:57;;;;;;;5.77;4.00;;;0.00;99.90;;;;;;6214157;23;20401;-62
2023/12/03 03:00:27;;;;;;;8.80;4.83;;;0.00;99.90;;;;;;6214440;23;20431;-63
2023/12/03 03:02:55;;;;;;;7.07;4.03;;;0.00;99.90;;;;;;6214553;23;20393;-63
2023/12/03 03:05:24;;;;;;;6.60;2.77;;;0.10;99.90;;;;;;6214706;23;20404;-58
2023/12/03 03:07:51;;;;;;;11.87;5.00;;;0.00;99.90;;;;;;6214793;23;20409;-57
2023/12/03 03:10:17;;;;;;;9.03;6.20;;;-0.10;99.90;;;;;;6214843;23;20373;-61
2023/12/03 03:12:44;;;;;;;7.80;3.97;;;-0.10;99.90;;;;;;6214750;23;20396;-55
2023/12/03 03:15:12;;;;;;;6.23;3.93;;;-0.10;99.90;;;;;;6214968;23;20425;-56
2023/12/03 03:17:39;;;;;;;7.90;3.87;;;-0.10;99.90;;;;;;6214959;23;20377;-58
2023/12/03 03:20:10;;;;;;;11.57;5.80;;;-0.20;99.90;;;;;;6214654;23;20392;-60
2023/12/03 03:22:37;;;;;;;6.77;3.40;;;-0.10;99.90;;;;;;6214923;23;20373;-58
2023/12/03 03:25:05;;;;;;;7.90;4.60;;;-0.10;99.90;;;;;;6214708;23;20389;-52
2023/12/03 03:27:32;;;;;;;6.67;3.67;;;0.00;99.90;;;;;;6214693;23;20428;-53
2023/12/03 03:29:59;;;;;;;7.23;4.07;;;-0.10;99.90;;;;;;6214741;23;20389;-61
2023/12/03 04:45:09;;;;;;;12.40;6.73;;;0.00;99.90;;;;;;6157672;23;20445;-67
2023/12/03 04:47:37;;;;;;;10.10;5.77;;;0.10;99.90;;;;;;6133513;23;20434;-67
2023/12/03 04:50:05;;;;;;;15.00;7.97;;;0.10;99.90;;;;;;6160106;23;20382;-66
2023/12/03 04:52:31;;;;;;;7.60;5.73;;;0.00;99.90;;;;;;6161412;23;20883;-68
2023/12/03 04:55:40;;;;;;;7.97;3.70;;;0.00;99.90;;;;;;6163358;23;20409;-66
2023/12/03 08:04:43;;;;;;;10.80;6.17;;;-0.60;99.90;;;;;;6155506;23;20446;-66
2023/12/03 08:07:10;;;;;;;15.43;7.00;;;-0.30;99.90;;;;;;6168627;23;20374;-67
2023/12/03 08:09:37;;;;;;;13.47;7.37;;;0.00;99.90;;;;;;6162604;23;20788;-67
2023/12/03 08:12:07;;;;;;;9.57;6.13;;;-0.50;99.90;;;;;;6162492;23;20386;-67
2023/12/03 08:14:35;;;;;;;11.03;5.50;;;-0.50;99.90;;;;;;6163303;23;20421;-66
2023/12/03 08:17:02;;;;;;;17.63;6.27;;;-0.40;99.90;;;;;;6160844;23;20433;-67
2023/12/03 08:19:29;;;;;;;17.13;6.97;;;-0.40;99.90;;;;;;6161203;23;20417;-67
2023/12/03 08:21:59;;;;;;;8.57;4.57;;;-0.40;99.90;;;;;;6160753;23;20382;-66
2023/12/03 08:24:26;;;;;;;11.60;6.40;;;-0.30;99.90;;;;;;6160672;23;20763;-66
2023/12/03 08:26:55;;;;;;;12.13;7.03;;;-0.30;99.90;;;;;;6160856;23;20387;-66
2023/12/03 08:39:48;;;;;;;12.70;6.40;;;-0.20;99.90;;;;;;6134005;23;20504;-66
2023/12/03 08:42:24;;;;;;;13.23;5.83;;;-0.20;99.90;;;;;;6130304;23;20422;-67
2023/12/03 08:44:51;;;;;;;18.23;5.00;;;-0.20;99.90;;;;;;6129685;23;20466;-67
2023/12/03 08:47:18;;;;;;;8.50;5.23;;;-0.20;99.90;;;;;;6130468;23;20418;-66
2023/12/03 10:33:23;;;;;;;5.57;4.37;;;-0.60;99.90;;;;;;6185458;23;20456;-68
2023/12/03 10:35:50;;;;;;;8.60;5.57;;;-0.30;99.90;;;;;;6203909;23;20448;-67
2023/12/03 10:38:21;;;;;;;12.80;7.87;;;-0.70;99.90;;;;;;6211823;23;20420;-67
2023/12/03 10:40:48;;;;;;;10.83;5.10;;;1.60;99.90;;;;;;6209079;23;20433;-61
2023/12/03 10:43:15;;;;;;;8.57;5.50;;;-0.40;99.90;;;;;;6209532;23;20409;-66
2023/12/03 10:45:42;;;;;;;8.27;5.43;;;-0.30;99.90;;;;;;6192893;23;20401;-69
2023/12/03 10:48:11;;;;;;;9.57;5.63;;;-0.20;99.90;;;;;;6187793;23;20417;-67
2023/12/03 10:50:43;;;;;;;10.43;6.00;;;-0.20;99.90;;;;;;6187644;23;20813;-69
2023/12/03 10:53:11;;;;;;;11.73;6.10;;;0.00;99.90;;;;;;6188076;23;20455;-68
2023/12/03 10:55:38;;;;;;;8.77;5.40;;;-0.10;99.90;;;;;;6187689;23;20499;-68
2023/12/03 10:58:06;;;;;;;11.10;5.13;;;-0.40;99.90;;;;;;6187447;23;21016;-68
2023/12/03 11:00:39;;;;;;;9.40;4.93;;;-0.20;99.90;;;;;;6190179;23;20428;-66
2023/12/03 11:03:15;;;;;;;10.03;6.70;;;-0.30;99.90;;;;;;6192806;23;20492;-68
2023/12/03 11:05:51;;;;;;;9.73;5.03;;;-0.20;99.90;;;;;;6191632;23;20393;-67
2023/12/03 11:08:21;;;;;;;10.07;5.93;;;-0.10;99.90;;;;;;6209874;23;20377;-56
2023/12/03 11:10:50;;;;;;;16.10;6.17;;;0.00;99.90;;;;;;6214296;23;20462;-53
2023/12/03 11:13:18;;;;;;;11.77;5.70;;;0.00;99.90;;;;;;6213190;23;20423;-56
2023/12/03 11:15:47;;;;;;;13.60;6.53;;;0.10;99.90;;;;;;6214264;23;20409;-57
2023/12/03 11:18:16;;;;;;;9.43;5.20;;;0.20;99.90;;;;;;6214130;23;21467;-54
2023/12/03 11:20:47;;;;;;;8.70;5.10;;;0.20;99.90;;;;;;6214328;23;20370;-55
2023/12/03 11:23:30;;;;;;;11.53;6.63;;;0.20;99.90;;;;;;6214604;23;20369;-55
2023/12/03 11:26:04;;;;;;;8.63;5.20;;;0.10;99.90;;;;;;6214599;23;20440;-54
2023/12/03 11:28:31;;;;;;;8.83;4.87;;;0.20;99.90;;;;;;6214311;23;20381;-56
2023/12/03 11:30:58;;;;;;;8.27;4.23;;;0.00;99.90;;;;;;6214263;23;20412;-56
2023/12/03 11:33:28;;;;;;;16.63;6.73;;;-0.10;99.90;;;;;;6214366;23;20386;-58
2023/12/03 11:36:00;;;;;;;6.93;5.40;;;-0.20;99.90;;;;;;6213964;23;20417;-59
2023/12/03 11:38:32;;;;;;;9.33;4.80;;;-0.30;99.90;;;;;;6209402;23;20393;-67
2023/12/03 11:40:59;;;;;;;12.53;5.43;;;-0.20;99.90;;;;;;6192738;23;20393;-66
2023/12/03 11:43:28;;;;;;;8.93;5.80;;;-0.10;99.90;;;;;;6189051;23;20401;-69
2023/12/03 11:45:55;;;;;;;5.90;3.90;;;-0.10;99.90;;;;;;6211810;23;20449;-66
2023/12/03 11:48:23;;;;;;;12.40;5.47;;;-0.10;99.90;;;;;;6212200;23;20393;-64
2023/12/03 11:50:51;;;;;;;8.70;4.90;;;-0.10;99.90;;;;;;6211749;23;20448;-52
2023/12/03 11:53:33;;;;;;;12.97;6.00;;;-0.10;99.90;;;;;;6205212;23;20839;-55
2023/12/03 11:56:01;;;;;;;6.43;4.37;;;-0.10;99.90;;;;;;6211470;23;20472;-67
2023/12/03 11:58:28;;;;;;;6.53;4.90;;;-0.10;99.90;;;;;;6197882;23;20404;-65
2023/12/03 12:00:55;;;;;;;7.83;4.43;;;-0.10;99.90;;;;;;6187412;23;20460;-66
2023/12/03 12:03:23;;;;;;;9.77;5.23;;;0.00;99.90;;;;;;6202413;23;20396;-64
2023/12/03 12:05:51;;;;;;;13.77;5.80;;;0.00;99.90;;;;;;6197631;23;20433;-70
2023/12/03 12:08:20;;;;;;;9.47;4.77;;;0.00;99.90;;;;;;6202072;23;20409;-53
2023/12/03 12:10:48;;;;;;;6.40;5.40;;;0.00;99.90;;;;;;6207634;23;20515;-70
2023/12/03 12:13:15;;;;;;;11.37;6.30;;;0.00;99.90;;;;;;6194999;23;20401;-52
2023/12/03 12:15:42;;;;;;;10.03;5.00;;;0.00;99.90;;;;;;6212182;23;20426;-67
2023/12/03 12:18:10;;;;;;;9.97;4.30;;;0.00;99.90;;;;;;6195642;23;20408;-54
2023/12/03 12:20:37;;;;;;;12.57;5.70;;;0.00;99.90;;;;;;6211469;23;20404;-56
2023/12/03 12:23:04;;;;;;;12.27;5.20;;;0.00;99.90;;;;;;6202140;23;20377;-57
2023/12/03 12:25:33;;;;;;;12.87;5.40;;;-0.10;99.90;;;;;;6196740;23;20431;-68
2023/12/03 12:28:02;;;;;;;10.10;6.33;;;-0.20;99.90;;;;;;6196552;23;20404;-58
2023/12/03 12:30:30;;;;;;;8.63;6.00;;;-0.10;99.90;;;;;;6200405;23;20812;-64
2023/12/03 12:32:57;;;;;;;12.30;6.03;;;-0.10;99.90;;;;;;6210930;23;20451;-66
2023/12/03 12:35:25;;;;;;;6.80;4.47;;;0.00;99.90;;;;;;6209355;23;20415;-57
2023/12/03 12:38:00;;;;;;;10.50;5.83;;;-0.10;99.90;;;;;;6206724;23;20791;-67
2023/12/03 12:40:30;;;;;;;10.87;6.90;;;0.00;99.90;;;;;;6204105;23;20368;-62
2023/12/03 12:43:10;;;;;;;14.47;6.53;;;0.00;99.90;;;;;;6200525;23;20443;-67
2023/12/03 12:45:38;;;;;;;13.23;5.70;;;-0.10;99.90;;;;;;6209226;23;20385;-68
2023/12/03 12:48:05;;;;;;;11.50;5.30;;;0.00;99.90;;;;;;6205307;23;20720;-65
2023/12/03 12:50:34;;;;;;;9.70;5.00;;;0.00;99.90;;;;;;6209949;23;20385;-69
2023/12/03 12:53:03;;;;;;;8.20;4.60;;;0.00;99.90;;;;;;6211199;23;20500;-65
2023/12/03 12:55:32;;;;;;;11.40;5.23;;;-0.10;99.90;;;;;;6205257;23;20389;-68
2023/12/03 12:57:59;;;;;;;10.10;4.53;;;-0.10;99.90;;;;;;6206462;23;20953;-69
2023/12/03 13:00:29;;;;;;;11.77;4.73;;;-0.10;99.90;;;;;;6206139;23;20409;-69
2023/12/03 13:02:56;;;;;;;8.97;5.00;;;-0.10;99.90;;;;;;6199686;23;20436;-59
2023/12/03 13:05:25;;;;;;;6.17;4.67;;;-0.10;99.90;;;;;;6188371;23;20415;-68
2023/12/03 13:07:53;;;;;;;6.90;3.97;;;-0.10;99.90;;;;;;6187128;23;20962;-66
2023/12/03 13:10:20;;;;;;;7.87;4.83;;;-0.10;99.90;;;;;;6211897;23;20416;-67
2023/12/03 13:12:49;;;;;;;10.83;4.77;;;-0.10;99.90;;;;;;6206192;23;20436;-65
2023/12/03 13:15:17;;;;;;;10.53;4.50;;;-0.20;99.90;;;;;;6214440;23;20400;-65
2023/12/03 13:17:49;;;;;;;8.17;5.10;;;0.60;99.90;;;;;;6189551;23;20440;-67
2023/12/03 13:20:16;;;;;;;6.30;3.53;;;-0.40;99.90;;;;;;6204966;23;20397;-66
2023/12/03 13:22:44;;;;;;;5.57;3.50;;;-0.40;99.90;;;;;;6196388;23;20389;-66
2023/12/03 13:25:12;;;;;;;6.40;4.17;;;-0.60;99.90;;;;;;6212998;23;20409;-65
2023/12/03 13:27:39;;;;;;;5.53;3.80;;;-0.60;99.90;;;;;;6189007;23;20411;-67
2023/12/03 13:30:07;;;;;;;8.43;4.10;;;-0.60;99.90;;;;;;6212948;23;20389;-53
2023/12/03 13:32:35;;;;;;;9.23;6.10;;;-0.70;99.90;;;;;;6210580;23;20409;-57
2023/12/03 13:35:03;;;;;;;10.50;5.47;;;-0.70;99.90;;;;;;6206607;23;20442;-70
2023/12/03 13:37:30;;;;;;;14.77;6.27;;;-0.70;99.90;;;;;;6209734;23;20448;-71
2023/12/03 13:39:57;;;;;;;12.13;6.03;;;-0.60;99.90;;;;;;6190600;23;20459;-66
2023/12/03 13:42:24;;;;;;;11.40;5.70;;;-0.50;99.90;;;;;;6191601;23;20855;-67
2023/12/03 13:44:53;;;;;;;10.43;4.53;;;-0.50;99.90;;;;;;6210934;23;20433;-58
2023/12/03 13:47:20;;;;;;;6.97;4.77;;;-0.50;99.90;;;;;;6189414;23;20436;-68
2023/12/03 13:49:47;;;;;;;7.40;4.17;;;-0.70;99.90;;;;;;6206616;23;20682;-64
2023/12/03 13:52:15;;;;;;;10.50;5.40;;;-0.70;99.90;;;;;;6197268;23;20418;-54
2023/12/03 13:54:42;;;;;;;10.03;5.00;;;-0.80;99.90;;;;;;6209282;23;20440;-68
2023/12/03 13:57:09;;;;;;;7.30;4.30;;;-0.70;99.90;;;;;;6193355;23;20456;-67
2023/12/03 13:59:36;;;;;;;5.70;4.20;;;-0.70;99.90;;;;;;6200391;23;20405;-68
2023/12/03 14:02:04;;;;;;;14.43;7.23;;;-0.70;99.90;;;;;;6194832;23;20424;-57
2023/12/03 14:04:31;;;;;;;10.37;5.33;;;-0.70;99.90;;;;;;6213264;23;20423;-68
2023/12/03 14:06:58;;;;;;;6.00;4.10;;;-0.60;99.90;;;;;;6208671;23;20400;-67
2023/12/03 14:09:26;;;;;;;15.63;4.80;;;-0.50;99.90;;;;;;6203659;23;20664;-67
2023/12/03 14:11:53;;;;;;;13.20;6.30;;;-0.50;99.90;;;;;;6203984;23;20456;-63
2023/12/03 14:14:20;;;;;;;6.23;4.70;;;-0.50;99.90;;;;;;6204291;23;20869;-67
2023/12/03 14:16:55;;;;;;;10.70;6.93;;;-0.60;99.90;;;;;;6197567;23;20436;-63
2023/12/03 14:19:22;;;;;;;10.70;6.33;;;-0.50;99.90;;;;;;6210692;23;20377;-52
2023/12/03 14:21:50;;;;;;;8.13;5.30;;;-0.50;99.90;;;;;;6197813;23;20887;-67
2023/12/03 14:24:17;;;;;;;14.50;5.53;;;-0.40;99.90;;;;;;6199210;23;20429;-66
2023/12/03 14:26:46;;;;;;;10.47;5.77;;;-0.50;99.90;;;;;;6201494;23;20389;-53
2023/12/03 14:29:14;;;;;;;10.63;6.60;;;-0.50;99.90;;;;;;6213412;23;20405;-58
2023/12/03 14:31:41;;;;;;;10.70;6.20;;;-0.50;99.90;;;;;;6193696;23;20433;-68
2023/12/03 14:34:09;;;;;;;17.30;7.33;;;-0.50;99.90;;;;;;6187612;23;20698;-65
2023/12/03 14:36:37;;;;;;;11.83;3.90;;;-0.50;99.90;;;;;;6213608;23;20463;-54
2023/12/03 14:39:04;;;;;;;8.80;4.47;;;-0.50;99.90;;;;;;6203479;23;20523;-67
2023/12/03 14:41:32;;;;;;;12.03;5.03;;;-0.50;99.90;;;;;;6187317;23;20400;-68
2023/12/03 14:44:00;;;;;;;6.80;4.80;;;-0.50;99.90;;;;;;6192066;23;20404;-67
2023/12/03 14:46:27;;;;;;;11.83;5.90;;;-0.50;99.90;;;;;;6212738;23;20430;-67
2023/12/03 14:48:55;;;;;;;9.30;4.97;;;-0.40;99.90;;;;;;6202473;23;20405;-65
2023/12/03 14:51:23;;;;;;;8.07;5.43;;;-0.40;99.90;;;;;;6207486;23;20436;-67
2023/12/03 14:53:51;;;;;;;7.70;4.77;;;-0.40;99.90;;;;;;6205799;23;20424;-68
2023/12/03 14:56:22;;;;;;;11.10;8.10;;;-0.40;99.90;;;;;;6189923;23;20428;-65
2023/12/03 14:58:48;;;;;;;9.70;4.90;;;-0.40;99.90;;;;;;6203427;23;20413;-69
2023/12/03 15:01:21;;;;;;;10.63;5.00;;;-0.30;99.90;;;;;;6187962;23;20440;-67
2023/12/03 15:03:48;;;;;;;11.53;5.90;;;-0.40;99.90;;;;;;6187301;23;20860;-68
2023/12/03 15:06:14;;;;;;;15.10;6.27;;;-0.40;99.90;;;;;;6190398;23;20420;-53
2023/12/03 15:08:41;;;;;;;12.13;5.33;;;-0.30;99.90;;;;;;6195558;23;20432;-66
2023/12/03 15:11:08;;;;;;;8.57;6.43;;;-0.20;99.90;;;;;;6205722;23;20397;-61
2023/12/03 15:13:35;;;;;;;12.57;7.20;;;-0.20;99.90;;;;;;6211083;23;20432;-64
2023/12/03 15:16:02;;;;;;;10.60;4.53;;;-0.20;99.90;;;;;;6210844;23;20420;-63
2023/12/03 15:18:31;;;;;;;5.13;3.53;;;-0.30;99.90;;;;;;6194970;23;20571;-61
2023/12/03 15:20:57;;;;;;;11.47;5.90;;;-0.30;99.90;;;;;;6211544;23;20433;-65
2023/12/03 15:23:24;;;;;;;9.50;5.47;;;-0.40;99.90;;;;;;6197054;23;20412;-68
2023/12/03 15:25:51;;;;;;;11.87;5.00;;;-0.40;99.90;;;;;;6204932;23;20709;-58
2023/12/03 15:28:19;;;;;;;8.30;5.33;;;-0.50;99.90;;;;;;6206067;23;20433;-56
2023/12/03 15:30:46;;;;;;;9.27;4.70;;;-0.40;99.90;;;;;;6213246;23;20405;-57
2023/12/03 15:33:14;;;;;;;10.80;3.70;;;-0.40;99.90;;;;;;6205291;23;20432;-62
2023/12/03 15:35:42;;;;;;;12.50;4.90;;;-0.50;99.90;;;;;;6205450;23;20872;-68
2023/12/03 15:38:10;;;;;;;11.90;4.73;;;-0.50;99.90;;;;;;6189382;23;20464;-69
2023/12/03 15:40:38;;;;;;;9.43;4.43;;;-0.50;99.90;;;;;;6193059;23;20436;-69
2023/12/03 15:43:05;;;;;;;8.47;4.33;;;-0.60;99.90;;;;;;6192879;23;20413;-69
2023/12/03 15:45:36;;;;;;;8.83;4.63;;;-0.70;99.90;;;;;;6210262;23;20409;-66
2023/12/03 15:48:03;;;;;;;7.90;5.10;;;-0.70;99.90;;;;;;6199064;23;20460;-55
2023/12/03 15:50:30;;;;;;;5.70;4.27;;;-0.60;99.90;;;;;;6205605;23;20389;-55
2023/12/03 15:52:58;;;;;;;12.47;6.10;;;-0.50;99.90;;;;;;6210854;23;20417;-67
2023/12/03 15:55:25;;;;;;;15.17;13.20;;;-0.50;99.90;;;;;;6194520;23;20448;-51
2023/12/03 15:57:52;;;;;;;8.63;4.93;;;-0.50;99.90;;;;;;6195822;23;20491;-63
2023/12/03 16:00:20;;;;;;;10.83;5.00;;;-0.50;99.90;;;;;;6207895;23;20405;-65
2023/12/03 16:02:48;;;;;;;8.67;3.97;;;-0.60;99.90;;;;;;6187060;23;20436;-69
2023/12/03 16:05:15;;;;;;;14.53;7.50;;;-0.60;99.90;;;;;;6186541;23;20467;-62
2023/12/03 16:07:44;;;;;;;11.33;5.50;;;-0.50;99.90;;;;;;6186850;23;20401;-68
2023/12/03 16:10:16;;;;;;;7.50;4.50;;;-0.50;99.90;;;;;;6212029;23;20393;-66
2023/12/03 16:12:43;;;;;;;8.43;4.27;;;-0.50;99.90;;;;;;6194596;23;20376;-54
2023/12/03 16:15:10;;;;;;;7.83;5.20;;;-0.50;99.90;;;;;;6201631;23;20457;-63
2023/12/03 16:17:38;;;;;;;17.87;7.13;;;-0.50;99.90;;;;;;6204227;23;20730;-68
2023/12/03 16:20:08;;;;;;;12.63;4.60;;;-0.40;99.90;;;;;;6204118;23;20424;-66
2023/12/03 16:22:35;;;;;;;11.70;5.83;;;-0.40;99.90;;;;;;6201225;23;20417;-68
2023/12/03 16:25:03;;;;;;;9.63;4.60;;;-0.40;99.90;;;;;;6194411;23;20393;-54
2023/12/03 16:27:33;;;;;;;8.17;4.40;;;-0.40;99.90;;;;;;6213031;23;20380;-51
2023/12/03 16:30:01;;;;;;;9.63;4.53;;;-0.30;99.90;;;;;;6196143;23;20404;-66
2023/12/03 16:32:28;;;;;;;13.00;4.80;;;-0.30;99.90;;;;;;6212021;23;20435;-63
2023/12/03 16:34:55;;;;;;;14.50;6.53;;;-0.30;99.90;;;;;;6187248;23;20428;-68
2023/12/03 16:37:21;;;;;;;7.50;4.87;;;-0.40;99.90;;;;;;6201543;23;20439;-55
2023/12/03 16:39:48;;;;;;;7.43;4.17;;;-0.40;99.90;;;;;;6189774;23;20488;-66
2023/12/03 16:42:16;;;;;;;16.00;7.33;;;-0.20;99.90;;;;;;6199199;23;20389;-54
2023/12/03 16:44:45;;;;;;;8.20;5.87;;;-0.40;99.90;;;;;;6212233;23;20432;-66
2023/12/03 16:47:12;;;;;;;9.40;5.80;;;-0.40;99.90;;;;;;6187711;23;20507;-68
2023/12/03 16:49:42;;;;;;;10.33;5.43;;;-0.40;99.90;;;;;;6193579;23;20775;-66
2023/12/03 16:52:09;;;;;;;7.70;4.80;;;-0.40;99.90;;;;;;6194892;23;20718;-66
2023/12/03 16:54:36;;;;;;;7.10;4.90;;;-0.40;99.90;;;;;;6206211;23;20393;-55
2023/12/03 16:57:04;;;;;;;10.80;5.20;;;-0.50;99.90;;;;;;6213084;23;20448;-63
2023/12/03 16:59:31;;;;;;;9.07;5.50;;;-0.50;99.90;;;;;;6202601;23;20416;-59
2023/12/03 17:02:00;;;;;;;11.30;5.67;;;-0.40;99.90;;;;;;6196581;23;20959;-67
2023/12/03 17:04:27;;;;;;;17.07;6.80;;;-0.30;99.90;;;;;;6202379;23;20400;-66
2023/12/03 17:06:55;;;;;;;7.47;4.93;;;-0.40;99.90;;;;;;6210289;23;20487;-66
2023/12/03 17:09:22;;;;;;;10.53;5.67;;;-0.40;99.90;;;;;;6200773;23;20468;-56
2023/12/03 17:11:49;;;;;;;9.40;5.00;;;-0.50;99.90;;;;;;6207431;23;20478;-56
2023/12/03 17:14:16;;;;;;;8.77;4.53;;;-0.50;99.90;;;;;;6214370;23;20397;-65
2023/12/03 17:16:43;;;;;;;10.90;5.43;;;-0.50;99.90;;;;;;6213422;23;20400;-68
2023/12/03 17:19:14;;;;;;;13.53;6.40;;;-0.60;99.90;;;;;;6211856;23;20432;-52
2023/12/03 17:21:41;;;;;;;10.23;5.20;;;-0.60;99.90;;;;;;6207020;23;20389;-66
2023/12/03 17:24:09;;;;;;;6.83;4.17;;;-0.60;99.90;;;;;;6207977;23;20439;-68
2023/12/03 17:26:41;;;;;;;8.60;5.70;;;-0.50;99.90;;;;;;6200354;23;20448;-60
2023/12/03 17:29:08;;;;;;;8.43;5.90;;;-0.40;99.90;;;;;;6211101;23;20429;-65
2023/12/03 17:31:35;;;;;;;8.87;6.00;;;-0.40;99.90;;;;;;6206493;23;20380;-65
2023/12/03 17:34:02;;;;;;;10.53;5.47;;;-0.40;99.90;;;;;;6204703;23;20400;-57
2023/12/03 17:36:33;;;;;;;16.97;7.13;;;-0.40;99.90;;;;;;6211183;23;20439;-62
2023/12/03 17:39:00;;;;;;;11.73;5.93;;;-0.40;99.90;;;;;;6196909;23;20433;-53
2023/12/03 17:41:27;;;;;;;11.83;6.13;;;-0.50;99.90;;;;;;6208667;23;20429;-70
2023/12/03 17:43:54;;;;;;;11.93;7.03;;;-0.50;99.90;;;;;;6209771;23;20396;-71
2023/12/03 17:46:21;;;;;;;9.07;5.80;;;-0.40;99.90;;;;;;6203220;23;20389;-63
2023/12/03 17:48:49;;;;;;;12.47;6.43;;;-0.40;99.90;;;;;;6196557;23;20491;-71
2023/12/03 17:51:16;;;;;;;12.90;6.37;;;-0.40;99.90;;;;;;6200890;23;20416;-66
2023/12/03 17:53:44;;;;;;;11.97;6.00;;;-0.40;99.90;;;;;;6197920;23;20432;-69
2023/12/03 17:56:12;;;;;;;8.27;4.63;;;-0.30;99.90;;;;;;6189265;23;20491;-68
2023/12/03 17:58:39;;;;;;;13.80;5.93;;;-0.30;99.90;;;;;;6203068;23;20432;-63
2023/12/03 18:01:07;;;;;;;12.27;6.50;;;-0.40;99.90;;;;;;6211254;23;20389;-67
2023/12/03 18:03:34;;;;;;;19.97;7.33;;;-0.30;99.90;;;;;;6207319;23;20844;-69
2023/12/03 18:06:03;;;;;;;10.37;5.10;;;-0.30;99.90;;;;;;6208881;23;20417;-53
2023/12/03 18:08:31;;;;;;;14.00;7.07;;;-0.30;99.90;;;;;;6209935;23;20504;-67
2023/12/03 18:10:59;;;;;;;12.07;8.07;;;-0.20;99.90;;;;;;6214304;23;20399;-65
2023/12/03 18:13:26;;;;;;;13.73;6.40;;;-0.20;99.90;;;;;;6198563;23;20378;-71
2023/12/03 18:15:53;;;;;;;11.47;6.80;;;-0.20;99.90;;;;;;6212504;23;20392;-59
2023/12/03 18:18:19;;;;;;;11.80;7.03;;;-0.20;99.90;;;;;;6211905;23;20457;-57
2023/12/03 18:20:46;;;;;;;14.17;7.70;;;-0.10;99.90;;;;;;6213438;23;20405;-65
2023/12/03 18:23:13;;;;;;;10.23;6.30;;;-0.10;99.90;;;;;;6198283;23;20433;-55
2023/12/03 18:25:40;;;;;;;11.13;5.90;;;-0.10;99.90;;;;;;6200777;23;20416;-69
2023/12/03 18:28:09;;;;;;;14.90;8.07;;;-0.10;99.90;;;;;;6207290;23;20400;-67
2023/12/03 18:30:36;;;;;;;16.87;8.60;;;-0.10;99.90;;;;;;6213068;23;20436;-69
2023/12/03 18:33:04;;;;;;;12.20;6.77;;;0.00;99.90;;;;;;6187628;23;20419;-68
2023/12/03 18:35:31;;;;;;;12.60;7.67;;;0.00;99.90;;;;;;6187304;23;20408;-64
2023/12/03 18:37:58;;;;;;;10.63;6.13;;;0.00;99.90;;;;;;6200582;23;20453;-57
2023/12/03 18:40:25;;;;;;;11.93;6.40;;;0.00;99.90;;;;;;6197267;23;20508;-66
2023/12/03 18:42:52;;;;;;;16.33;6.90;;;0.00;99.90;;;;;;6192415;23;20482;-67
2023/12/03 18:45:22;;;;;;;17.73;7.40;;;0.10;99.90;;;;;;6206039;23;20409;-60
2023/12/03 18:47:49;;;;;;;12.47;6.57;;;0.10;99.90;;;;;;6207524;23;20408;-68
2023/12/03 18:50:17;;;;;;;14.87;8.90;;;0.00;99.90;;;;;;6208756;23;20440;-66
2023/12/03 18:52:44;;;;;;;15.80;6.67;;;0.10;99.90;;;;;;6202418;23;20428;-67
2023/12/03 18:55:13;;;;;;;10.77;6.57;;;0.10;99.90;;;;;;6210243;23;20404;-64
2023/12/03 18:57:40;;;;;;;14.13;8.03;;;0.10;99.90;;;;;;6202669;23;20433;-57
2023/12/03 19:00:13;;;;;;;14.80;8.00;;;0.10;99.90;;;;;;6214377;23;20377;-55